sensor_id;sensor_type;location;lat;lon;timestamp;P1;durP1;ratioP1;P2;durP2;ratioP2
22160;SDS011;49035;48.812;11.762;2023-06-10T00:01:12;14.37;;;10.43;;
22160;SDS011;49035;48.812;11.762;2023-06-10T00:03:38;14.10;;;9.87;;
22160;SDS011;49035;48.812;11.762;2023-06-10T00:06:04;16.53;;;10.27;;
22160;SDS011;49035;48.812;11.762;2023-06-10T00:08:30;14.70;;;10.80;;
22160;SDS011;49035;48.812;11.762;2023-06-10T00:10:56;11.20;;;9.37;;
22160;SDS011;49035;48.812;11.762;2023-06-10T00:13:21;13.40;;;9.70;;
22160;SDS011;49035;48.812;11.762;2023-06-10T00:15:47;13.53;;;9.93;;
22160;SDS011;49035;48.812;11.762;2023-06-10T00:18:13;11.03;;;9.27;;
22160;SDS011;49035;48.812;11.762;2023-06-10T00:20:39;12.40;;;10.00;;
22160;SDS011;49035;48.812;11.762;2023-06-10T00:23:04;14.33;;;10.20;;
22160;SDS011;49035;48.812;11.762;2023-06-10T00:25:34;12.73;;;9.37;;
22160;SDS011;49035;48.812;11.762;2023-06-10T00:28:00;12.23;;;9.93;;
22160;SDS011;49035;48.812;11.762;2023-06-10T00:30:25;14.57;;;10.20;;
22160;SDS011;49035;48.812;11.762;2023-06-10T00:32:51;12.87;;;9.67;;
22160;SDS011;49035;48.812;11.762;2023-06-10T00:35:16;13.50;;;10.33;;
22160;SDS011;49035;48.812;11.762;2023-06-10T00:37:42;12.20;;;9.57;;
22160;SDS011;49035;48.812;11.762;2023-06-10T00:40:08;12.93;;;9.17;;
22160;SDS011;49035;48.812;11.762;2023-06-10T00:42:34;13.23;;;10.00;;
22160;SDS011;49035;48.812;11.762;2023-06-10T00:45:00;15.40;;;11.40;;
22160;SDS011;49035;48.812;11.762;2023-06-10T00:47:25;13.57;;;10.67;;
22160;SDS011;49035;48.812;11.762;2023-06-10T00:49:52;14.97;;;10.77;;
22160;SDS011;49035;48.812;11.762;2023-06-10T00:52:19;16.97;;;11.13;;
22160;SDS011;49035;48.812;11.762;2023-06-10T00:54:47;13.63;;;10.53;;
22160;SDS011;49035;48.812;11.762;2023-06-10T00:57:13;15.20;;;10.97;;
22160;SDS011;49035;48.812;11.762;2023-06-10T00:59:40;13.60;;;11.00;;
22160;SDS011;49035;48.812;11.762;2023-06-10T01:02:08;15.47;;;11.00;;
22160;SDS011;49035;48.812;11.762;2023-06-10T01:04:34;13.00;;;9.90;;
22160;SDS011;49035;48.812;11.762;2023-06-10T01:09:47;12.27;;;10.17;;
22160;SDS011;49035;48.812;11.762;2023-06-10T01:15:05;13.63;;;10.57;;
22160;SDS011;49035;48.812;11.762;2023-06-10T01:17:32;14.00;;;10.03;;
22160;SDS011;49035;48.812;11.762;2023-06-10T01:19:59;13.83;;;10.27;;
22160;SDS011;49035;48.812;11.762;2023-06-10T01:22:25;14.43;;;10.27;;
22160;SDS011;49035;48.812;11.762;2023-06-10T01:24:57;16.80;;;11.50;;
22160;SDS011;49035;48.812;11.762;2023-06-10T01:27:26;15.70;;;10.70;;
22160;SDS011;49035;48.812;11.762;2023-06-10T01:29:56;15.83;;;11.40;;
22160;SDS011;49035;48.812;11.762;2023-06-10T01:32:45;17.43;;;11.00;;
22160;SDS011;49035;48.812;11.762;2023-06-10T01:35:16;13.87;;;11.00;;
22160;SDS011;49035;48.812;11.762;2023-06-10T01:37:45;14.33;;;10.80;;
22160;SDS011;49035;48.812;11.762;2023-06-10T01:40:11;17.03;;;10.47;;
22160;SDS011;49035;48.812;11.762;2023-06-10T01:42:38;14.37;;;10.90;;
22160;SDS011;49035;48.812;11.762;2023-06-10T01:45:04;18.40;;;11.60;;
22160;SDS011;49035;48.812;11.762;2023-06-10T01:47:31;19.10;;;12.23;;
22160;SDS011;49035;48.812;11.762;2023-06-10T01:49:56;15.00;;;10.37;;
22160;SDS011;49035;48.812;11.762;2023-06-10T01:52:22;15.30;;;11.20;;
22160;SDS011;49035;48.812;11.762;2023-06-10T01:54:48;14.67;;;10.67;;
22160;SDS011;49035;48.812;11.762;2023-06-10T01:57:14;16.27;;;11.10;;
22160;SDS011;49035;48.812;11.762;2023-06-10T01:59:40;16.30;;;11.37;;
22160;SDS011;49035;48.812;11.762;2023-06-10T02:02:09;17.30;;;12.13;;
22160;SDS011;49035;48.812;11.762;2023-06-10T02:04:35;20.00;;;12.50;;
22160;SDS011;49035;48.812;11.762;2023-06-10T02:07:01;17.07;;;11.43;;
22160;SDS011;49035;48.812;11.762;2023-06-10T02:09:29;18.80;;;11.63;;
22160;SDS011;49035;48.812;11.762;2023-06-10T02:11:56;19.13;;;12.67;;
22160;SDS011;49035;48.812;11.762;2023-06-10T02:14:22;14.77;;;11.13;;
22160;SDS011;49035;48.812;11.762;2023-06-10T02:16:48;18.27;;;11.33;;
22160;SDS011;49035;48.812;11.762;2023-06-10T02:19:14;16.47;;;12.50;;
22160;SDS011;49035;48.812;11.762;2023-06-10T02:21:39;16.07;;;11.80;;
22160;SDS011;49035;48.812;11.762;2023-06-10T02:24:05;19.03;;;12.73;;
22160;SDS011;49035;48.812;11.762;2023-06-10T02:26:32;18.33;;;12.60;;
22160;SDS011;49035;48.812;11.762;2023-06-10T02:28:57;17.73;;;12.47;;
22160;SDS011;49035;48.812;11.762;2023-06-10T02:31:23;18.17;;;12.50;;
22160;SDS011;49035;48.812;11.762;2023-06-10T02:33:50;17.17;;;11.40;;
22160;SDS011;49035;48.812;11.762;2023-06-10T02:36:16;15.03;;;11.00;;
22160;SDS011;49035;48.812;11.762;2023-06-10T02:38:42;16.77;;;12.07;;
22160;SDS011;49035;48.812;11.762;2023-06-10T02:41:08;18.23;;;11.60;;
22160;SDS011;49035;48.812;11.762;2023-06-10T02:43:33;16.23;;;11.97;;
22160;SDS011;49035;48.812;11.762;2023-06-10T02:45:59;18.10;;;12.37;;
22160;SDS011;49035;48.812;11.762;2023-06-10T02:48:25;19.13;;;12.13;;
22160;SDS011;49035;48.812;11.762;2023-06-10T02:50:52;16.70;;;11.83;;
22160;SDS011;49035;48.812;11.762;2023-06-10T02:53:18;18.80;;;12.07;;
22160;SDS011;49035;48.812;11.762;2023-06-10T02:55:44;19.33;;;12.43;;
22160;SDS011;49035;48.812;11.762;2023-06-10T02:58:09;20.23;;;12.33;;
22160;SDS011;49035;48.812;11.762;2023-06-10T03:00:35;20.43;;;12.77;;
22160;SDS011;49035;48.812;11.762;2023-06-10T03:03:01;17.07;;;12.00;;
22160;SDS011;49035;48.812;11.762;2023-06-10T03:05:28;15.80;;;11.27;;
22160;SDS011;49035;48.812;11.762;2023-06-10T03:07:54;18.70;;;11.77;;
22160;SDS011;49035;48.812;11.762;2023-06-10T03:10:20;18.67;;;11.97;;
22160;SDS011;49035;48.812;11.762;2023-06-10T03:12:46;18.90;;;12.83;;
22160;SDS011;49035;48.812;11.762;2023-06-10T03:15:30;19.80;;;13.17;;
22160;SDS011;49035;48.812;11.762;2023-06-10T03:18:57;21.07;;;13.60;;
22160;SDS011;49035;48.812;11.762;2023-06-10T03:21:45;19.73;;;13.47;;
22160;SDS011;49035;48.812;11.762;2023-06-10T03:24:11;23.17;;;13.83;;
22160;SDS011;49035;48.812;11.762;2023-06-10T03:26:36;21.30;;;13.40;;
22160;SDS011;49035;48.812;11.762;2023-06-10T03:29:02;18.50;;;13.33;;
22160;SDS011;49035;48.812;11.762;2023-06-10T03:31:28;22.00;;;13.67;;
22160;SDS011;49035;48.812;11.762;2023-06-10T03:33:54;23.77;;;14.30;;
22160;SDS011;49035;48.812;11.762;2023-06-10T03:36:20;20.50;;;14.00;;
22160;SDS011;49035;48.812;11.762;2023-06-10T03:38:46;19.87;;;13.57;;
22160;SDS011;49035;48.812;11.762;2023-06-10T03:41:11;29.07;;;15.30;;
22160;SDS011;49035;48.812;11.762;2023-06-10T03:43:37;23.80;;;14.90;;
22160;SDS011;49035;48.812;11.762;2023-06-10T03:46:05;22.63;;;15.27;;
22160;SDS011;49035;48.812;11.762;2023-06-10T03:48:31;27.23;;;14.47;;
22160;SDS011;49035;48.812;11.762;2023-06-10T03:50:57;22.97;;;14.10;;
22160;SDS011;49035;48.812;11.762;2023-06-10T03:53:23;25.87;;;14.37;;
22160;SDS011;49035;48.812;11.762;2023-06-10T03:55:49;25.43;;;14.13;;
22160;SDS011;49035;48.812;11.762;2023-06-10T03:58:14;21.90;;;14.50;;
22160;SDS011;49035;48.812;11.762;2023-06-10T04:00:40;22.53;;;15.00;;
22160;SDS011;49035;48.812;11.762;2023-06-10T04:03:09;21.93;;;13.47;;
22160;SDS011;49035;48.812;11.762;2023-06-10T04:05:39;24.53;;;14.90;;
22160;SDS011;49035;48.812;11.762;2023-06-10T04:08:06;25.70;;;14.93;;
22160;SDS011;49035;48.812;11.762;2023-06-10T04:10:32;23.83;;;15.60;;
22160;SDS011;49035;48.812;11.762;2023-06-10T04:17:10;23.05;;;15.43;;
22160;SDS011;49035;48.812;11.762;2023-06-10T04:23:24;20.40;;;13.75;;
22160;SDS011;49035;48.812;11.762;2023-06-10T04:26:39;12.32;;;10.00;;
22160;SDS011;49035;48.812;11.762;2023-06-10T04:29:05;10.75;;;9.63;;
22160;SDS011;49035;48.812;11.762;2023-06-10T04:31:30;9.90;;;8.60;;
22160;SDS011;49035;48.812;11.762;2023-06-10T04:33:57;8.60;;;7.70;;
22160;SDS011;49035;48.812;11.762;2023-06-10T04:36:22;9.07;;;7.13;;
22160;SDS011;49035;48.812;11.762;2023-06-10T04:38:48;7.72;;;6.55;;
22160;SDS011;49035;48.812;11.762;2023-06-10T04:41:14;8.32;;;6.63;;
22160;SDS011;49035;48.812;11.762;2023-06-10T04:43:39;7.95;;;6.82;;
22160;SDS011;49035;48.812;11.762;2023-06-10T04:46:05;7.22;;;6.38;;
22160;SDS011;49035;48.812;11.762;2023-06-10T04:48:30;7.13;;;6.45;;
22160;SDS011;49035;48.812;11.762;2023-06-10T04:50:58;8.35;;;6.80;;
22160;SDS011;49035;48.812;11.762;2023-06-10T04:53:24;7.90;;;6.35;;
22160;SDS011;49035;48.812;11.762;2023-06-10T04:55:49;7.22;;;6.43;;
22160;SDS011;49035;48.812;11.762;2023-06-10T04:58:15;7.28;;;6.55;;
22160;SDS011;49035;48.812;11.762;2023-06-10T05:00:41;7.85;;;5.97;;
22160;SDS011;49035;48.812;11.762;2023-06-10T05:03:06;7.25;;;6.22;;
22160;SDS011;49035;48.812;11.762;2023-06-10T05:05:32;6.53;;;5.80;;
22160;SDS011;49035;48.812;11.762;2023-06-10T05:07:58;8.00;;;5.82;;
22160;SDS011;49035;48.812;11.762;2023-06-10T05:10:23;6.07;;;5.47;;
22160;SDS011;49035;48.812;11.762;2023-06-10T05:12:49;7.22;;;5.97;;
22160;SDS011;49035;48.812;11.762;2023-06-10T05:15:14;7.18;;;6.15;;
22160;SDS011;49035;48.812;11.762;2023-06-10T05:17:40;6.75;;;5.82;;
22160;SDS011;49035;48.812;11.762;2023-06-10T05:20:05;6.22;;;5.63;;
22160;SDS011;49035;48.812;11.762;2023-06-10T05:22:31;6.45;;;5.78;;
22160;SDS011;49035;48.812;11.762;2023-06-10T05:24:57;6.05;;;5.53;;
22160;SDS011;49035;48.812;11.762;2023-06-10T05:27:22;5.32;;;4.82;;
22160;SDS011;49035;48.812;11.762;2023-06-10T05:29:49;6.97;;;5.50;;
22160;SDS011;49035;48.812;11.762;2023-06-10T05:32:16;6.72;;;5.90;;
22160;SDS011;49035;48.812;11.762;2023-06-10T05:34:42;5.97;;;5.38;;
22160;SDS011;49035;48.812;11.762;2023-06-10T05:37:07;8.68;;;5.05;;
22160;SDS011;49035;48.812;11.762;2023-06-10T05:39:34;6.57;;;5.07;;
22160;SDS011;49035;48.812;11.762;2023-06-10T05:42:02;6.38;;;4.63;;
22160;SDS011;49035;48.812;11.762;2023-06-10T05:44:29;8.10;;;4.95;;
22160;SDS011;49035;48.812;11.762;2023-06-10T05:46:55;11.45;;;6.13;;
22160;SDS011;49035;48.812;11.762;2023-06-10T05:49:20;7.53;;;6.28;;
22160;SDS011;49035;48.812;11.762;2023-06-10T05:51:46;9.18;;;5.93;;
22160;SDS011;49035;48.812;11.762;2023-06-10T05:54:11;8.63;;;5.15;;
22160;SDS011;49035;48.812;11.762;2023-06-10T05:56:37;5.93;;;5.32;;
22160;SDS011;49035;48.812;11.762;2023-06-10T05:59:02;6.13;;;5.50;;
22160;SDS011;49035;48.812;11.762;2023-06-10T06:01:28;5.90;;;4.57;;
22160;SDS011;49035;48.812;11.762;2023-06-10T06:03:54;5.20;;;4.70;;
22160;SDS011;49035;48.812;11.762;2023-06-10T06:06:19;5.82;;;5.10;;
22160;SDS011;49035;48.812;11.762;2023-06-10T06:08:48;5.72;;;4.97;;
22160;SDS011;49035;48.812;11.762;2023-06-10T06:11:14;6.00;;;4.63;;
22160;SDS011;49035;48.812;11.762;2023-06-10T06:13:39;6.45;;;5.85;;
22160;SDS011;49035;48.812;11.762;2023-06-10T06:16:06;4.93;;;4.45;;
22160;SDS011;49035;48.812;11.762;2023-06-10T06:18:31;5.13;;;4.63;;
22160;SDS011;49035;48.812;11.762;2023-06-10T06:20:57;6.80;;;4.68;;
22160;SDS011;49035;48.812;11.762;2023-06-10T06:23:23;5.47;;;4.30;;
22160;SDS011;49035;48.812;11.762;2023-06-10T06:25:48;6.22;;;4.90;;
22160;SDS011;49035;48.812;11.762;2023-06-10T06:28:14;5.43;;;4.95;;
22160;SDS011;49035;48.812;11.762;2023-06-10T06:30:40;4.22;;;3.83;;
22160;SDS011;49035;48.812;11.762;2023-06-10T06:33:05;5.75;;;5.22;;
22160;SDS011;49035;48.812;11.762;2023-06-10T06:35:32;6.00;;;5.15;;
22160;SDS011;49035;48.812;11.762;2023-06-10T06:37:58;5.28;;;4.78;;
22160;SDS011;49035;48.812;11.762;2023-06-10T06:40:24;5.72;;;5.13;;
22160;SDS011;49035;48.812;11.762;2023-06-10T06:42:50;6.00;;;5.50;;
22160;SDS011;49035;48.812;11.762;2023-06-10T06:45:16;8.98;;;5.97;;
22160;SDS011;49035;48.812;11.762;2023-06-10T06:47:41;8.88;;;5.57;;
22160;SDS011;49035;48.812;11.762;2023-06-10T06:50:08;7.25;;;6.47;;
22160;SDS011;49035;48.812;11.762;2023-06-10T06:52:34;6.25;;;5.25;;
22160;SDS011;49035;48.812;11.762;2023-06-10T06:55:00;6.45;;;5.85;;
22160;SDS011;49035;48.812;11.762;2023-06-10T06:57:25;6.68;;;5.80;;
22160;SDS011;49035;48.812;11.762;2023-06-10T06:59:51;7.30;;;5.22;;
22160;SDS011;49035;48.812;11.762;2023-06-10T07:02:16;5.88;;;5.25;;
22160;SDS011;49035;48.812;11.762;2023-06-10T07:04:44;9.32;;;5.03;;
22160;SDS011;49035;48.812;11.762;2023-06-10T07:07:10;7.70;;;5.53;;
22160;SDS011;49035;48.812;11.762;2023-06-10T07:09:37;6.28;;;5.68;;
22160;SDS011;49035;48.812;11.762;2023-06-10T07:12:03;6.30;;;4.88;;
22160;SDS011;49035;48.812;11.762;2023-06-10T07:14:29;4.90;;;4.45;;
22160;SDS011;49035;48.812;11.762;2023-06-10T07:16:55;6.28;;;4.90;;
22160;SDS011;49035;48.812;11.762;2023-06-10T07:19:20;5.88;;;5.28;;
22160;SDS011;49035;48.812;11.762;2023-06-10T07:21:46;5.10;;;4.55;;
22160;SDS011;49035;48.812;11.762;2023-06-10T07:24:12;5.50;;;5.00;;
22160;SDS011;49035;48.812;11.762;2023-06-10T07:26:38;7.15;;;5.07;;
22160;SDS011;49035;48.812;11.762;2023-06-10T07:29:03;6.22;;;5.68;;
22160;SDS011;49035;48.812;11.762;2023-06-10T07:31:29;4.75;;;4.35;;
22160;SDS011;49035;48.812;11.762;2023-06-10T07:33:54;5.07;;;4.68;;
22160;SDS011;49035;48.812;11.762;2023-06-10T07:36:20;5.15;;;4.55;;
22160;SDS011;49035;48.812;11.762;2023-06-10T07:38:45;5.45;;;4.93;;
22160;SDS011;49035;48.812;11.762;2023-06-10T07:41:11;6.22;;;4.30;;
22160;SDS011;49035;48.812;11.762;2023-06-10T07:43:37;6.75;;;4.80;;
22160;SDS011;49035;48.812;11.762;2023-06-10T07:46:03;7.40;;;4.53;;
22160;SDS011;49035;48.812;11.762;2023-06-10T07:48:30;6.22;;;4.70;;
22160;SDS011;49035;48.812;11.762;2023-06-10T07:50:56;5.22;;;4.45;;
22160;SDS011;49035;48.812;11.762;2023-06-10T07:53:21;5.63;;;4.53;;
22160;SDS011;49035;48.812;11.762;2023-06-10T07:55:47;4.95;;;4.40;;
22160;SDS011;49035;48.812;11.762;2023-06-10T07:58:13;7.38;;;5.43;;
22160;SDS011;49035;48.812;11.762;2023-06-10T08:00:38;6.05;;;4.80;;
22160;SDS011;49035;48.812;11.762;2023-06-10T08:03:04;5.35;;;4.85;;
22160;SDS011;49035;48.812;11.762;2023-06-10T08:05:29;5.88;;;5.28;;
22160;SDS011;49035;48.812;11.762;2023-06-10T08:07:55;5.32;;;4.80;;
22160;SDS011;49035;48.812;11.762;2023-06-10T08:10:21;5.28;;;4.75;;
22160;SDS011;49035;48.812;11.762;2023-06-10T08:12:46;6.32;;;5.10;;
22160;SDS011;49035;48.812;11.762;2023-06-10T08:15:12;6.65;;;4.50;;
22160;SDS011;49035;48.812;11.762;2023-06-10T08:17:38;5.22;;;4.72;;
22160;SDS011;49035;48.812;11.762;2023-06-10T08:20:04;6.03;;;4.63;;
22160;SDS011;49035;48.812;11.762;2023-06-10T08:22:31;5.40;;;4.90;;
22160;SDS011;49035;48.812;11.762;2023-06-10T08:24:56;5.43;;;4.93;;
22160;SDS011;49035;48.812;11.762;2023-06-10T08:27:22;5.53;;;5.00;;
22160;SDS011;49035;48.812;11.762;2023-06-10T08:29:48;5.97;;;5.38;;
22160;SDS011;49035;48.812;11.762;2023-06-10T08:32:14;5.43;;;4.93;;
22160;SDS011;49035;48.812;11.762;2023-06-10T08:34:39;7.05;;;5.75;;
22160;SDS011;49035;48.812;11.762;2023-06-10T08:37:06;5.32;;;4.82;;
22160;SDS011;49035;48.812;11.762;2023-06-10T08:39:32;8.18;;;5.20;;
22160;SDS011;49035;48.812;11.762;2023-06-10T08:44:46;5.57;;;4.90;;
22160;SDS011;49035;48.812;11.762;2023-06-10T08:47:16;5.40;;;4.90;;
22160;SDS011;49035;48.812;11.762;2023-06-10T08:49:45;5.95;;;4.82;;
22160;SDS011;49035;48.812;11.762;2023-06-10T08:52:18;5.40;;;4.75;;
22160;SDS011;49035;48.812;11.762;2023-06-10T08:55:31;9.32;;;5.28;;
22160;SDS011;49035;48.812;11.762;2023-06-10T08:57:33;5.43;;;4.93;;
22160;SDS011;49035;48.812;11.762;2023-06-10T09:00:00;5.43;;;4.93;;
22160;SDS011;49035;48.812;11.762;2023-06-10T09:02:27;12.80;;;6.75;;
22160;SDS011;49035;48.812;11.762;2023-06-10T09:04:53;7.10;;;4.93;;
22160;SDS011;49035;48.812;11.762;2023-06-10T09:07:22;5.70;;;4.95;;
22160;SDS011;49035;48.812;11.762;2023-06-10T09:09:48;5.28;;;4.78;;
22160;SDS011;49035;48.812;11.762;2023-06-10T09:12:14;8.43;;;4.60;;
22160;SDS011;49035;48.812;11.762;2023-06-10T09:14:41;5.25;;;4.07;;
22160;SDS011;49035;48.812;11.762;2023-06-10T09:17:10;4.60;;;4.15;;
22160;SDS011;49035;48.812;11.762;2023-06-10T09:19:35;4.85;;;4.40;;
22160;SDS011;49035;48.812;11.762;2023-06-10T09:22:03;5.40;;;4.57;;
22160;SDS011;49035;48.812;11.762;2023-06-10T09:24:29;5.20;;;4.20;;
22160;SDS011;49035;48.812;11.762;2023-06-10T09:27:05;5.60;;;5.00;;
22160;SDS011;49035;48.812;11.762;2023-06-10T09:29:40;7.25;;;4.40;;
22160;SDS011;49035;48.812;11.762;2023-06-10T09:32:12;5.25;;;4.15;;
22160;SDS011;49035;48.812;11.762;2023-06-10T09:34:37;7.05;;;5.05;;
22160;SDS011;49035;48.812;11.762;2023-06-10T09:37:03;5.22;;;4.75;;
22160;SDS011;49035;48.812;11.762;2023-06-10T09:39:29;6.50;;;4.95;;
22160;SDS011;49035;48.812;11.762;2023-06-10T09:41:55;6.05;;;5.45;;
22160;SDS011;49035;48.812;11.762;2023-06-10T09:44:20;5.80;;;5.20;;
22160;SDS011;49035;48.812;11.762;2023-06-10T09:46:50;5.43;;;4.93;;
22160;SDS011;49035;48.812;11.762;2023-06-10T09:49:16;9.00;;;4.97;;
22160;SDS011;49035;48.812;11.762;2023-06-10T09:51:52;5.90;;;5.30;;
22160;SDS011;49035;48.812;11.762;2023-06-10T09:54:18;6.28;;;5.30;;
22160;SDS011;49035;48.812;11.762;2023-06-10T09:56:48;5.97;;;5.38;;
22160;SDS011;49035;48.812;11.762;2023-06-10T09:59:14;5.82;;;5.20;;
22160;SDS011;49035;48.812;11.762;2023-06-10T10:01:41;6.05;;;5.00;;
22160;SDS011;49035;48.812;11.762;2023-06-10T10:04:06;5.65;;;5.13;;
22160;SDS011;49035;48.812;11.762;2023-06-10T10:06:32;7.85;;;5.28;;
22160;SDS011;49035;48.812;11.762;2023-06-10T10:08:59;6.38;;;5.53;;
22160;SDS011;49035;48.812;11.762;2023-06-10T10:11:24;5.15;;;4.65;;
22160;SDS011;49035;48.812;11.762;2023-06-10T10:13:53;5.75;;;5.13;;
22160;SDS011;49035;48.812;11.762;2023-06-10T10:16:29;5.75;;;4.60;;
22160;SDS011;49035;48.812;11.762;2023-06-10T10:19:01;6.15;;;5.30;;
22160;SDS011;49035;48.812;11.762;2023-06-10T10:21:50;6.70;;;5.18;;
22160;SDS011;49035;48.812;11.762;2023-06-10T10:24:20;5.28;;;4.78;;
22160;SDS011;49035;48.812;11.762;2023-06-10T10:26:48;6.35;;;4.93;;
22160;SDS011;49035;48.812;11.762;2023-06-10T10:29:31;5.35;;;4.45;;
22160;SDS011;49035;48.812;11.762;2023-06-10T10:32:03;4.90;;;4.50;;
22160;SDS011;49035;48.812;11.762;2023-06-10T10:34:34;6.03;;;4.40;;
22160;SDS011;49035;48.812;11.762;2023-06-10T10:37:04;7.47;;;4.45;;
22160;SDS011;49035;48.812;11.762;2023-06-10T10:39:30;6.82;;;4.30;;
22160;SDS011;49035;48.812;11.762;2023-06-10T10:41:58;7.78;;;3.97;;
22160;SDS011;49035;48.812;11.762;2023-06-10T10:44:24;3.90;;;3.58;;
22160;SDS011;49035;48.812;11.762;2023-06-10T10:46:51;4.55;;;4.15;;
22160;SDS011;49035;48.812;11.762;2023-06-10T10:49:19;8.18;;;3.72;;
22160;SDS011;49035;48.812;11.762;2023-06-10T10:52:00;5.47;;;3.95;;
22160;SDS011;49035;48.812;11.762;2023-06-10T10:54:33;3.75;;;3.35;;
22160;SDS011;49035;48.812;11.762;2023-06-10T11:02:37;3.95;;;3.55;;
22160;SDS011;49035;48.812;11.762;2023-06-10T11:05:05;3.97;;;3.67;;
22160;SDS011;49035;48.812;11.762;2023-06-10T11:07:33;3.55;;;3.25;;
22160;SDS011;49035;48.812;11.762;2023-06-10T11:10:09;5.30;;;3.63;;
22160;SDS011;49035;48.812;11.762;2023-06-10T11:15:11;3.92;;;3.60;;
22160;SDS011;49035;48.812;11.762;2023-06-10T11:17:45;4.70;;;3.85;;
22160;SDS011;49035;48.812;11.762;2023-06-10T11:31:23;5.88;;;4.47;;
22160;SDS011;49035;48.812;11.762;2023-06-10T11:34:03;5.97;;;4.68;;
22160;SDS011;49035;48.812;11.762;2023-06-10T11:36:30;4.97;;;4.47;;
22160;SDS011;49035;48.812;11.762;2023-06-10T11:38:57;5.60;;;5.03;;
22160;SDS011;49035;48.812;11.762;2023-06-10T11:41:23;5.03;;;4.53;;
22160;SDS011;49035;48.812;11.762;2023-06-10T11:43:56;6.45;;;4.82;;
22160;SDS011;49035;48.812;11.762;2023-06-10T11:46:22;6.65;;;5.25;;
22160;SDS011;49035;48.812;11.762;2023-06-10T11:48:52;5.45;;;4.85;;
22160;SDS011;49035;48.812;11.762;2023-06-10T11:51:25;6.35;;;4.60;;
22160;SDS011;49035;48.812;11.762;2023-06-10T11:53:51;5.18;;;4.45;;
22160;SDS011;49035;48.812;11.762;2023-06-10T11:56:21;5.57;;;4.43;;
22160;SDS011;49035;48.812;11.762;2023-06-10T11:58:55;5.88;;;4.45;;
22160;SDS011;49035;48.812;11.762;2023-06-10T12:01:24;4.65;;;4.30;;
22160;SDS011;49035;48.812;11.762;2023-06-10T12:04:10;4.72;;;4.25;;
22160;SDS011;49035;48.812;11.762;2023-06-10T12:06:37;7.88;;;4.22;;
22160;SDS011;49035;48.812;11.762;2023-06-10T12:09:04;4.70;;;4.30;;
22160;SDS011;49035;48.812;11.762;2023-06-10T12:11:30;4.70;;;4.30;;
22160;SDS011;49035;48.812;11.762;2023-06-10T12:13:56;6.25;;;4.15;;
22160;SDS011;49035;48.812;11.762;2023-06-10T12:16:25;6.30;;;4.13;;
22160;SDS011;49035;48.812;11.762;2023-06-10T12:18:50;5.60;;;4.28;;
22160;SDS011;49035;48.812;11.762;2023-06-10T12:21:17;5.30;;;4.50;;
22160;SDS011;49035;48.812;11.762;2023-06-10T12:24:08;4.40;;;4.00;;
22160;SDS011;49035;48.812;11.762;2023-06-10T12:29:23;4.82;;;4.40;;
22160;SDS011;49035;48.812;11.762;2023-06-10T12:32:00;5.57;;;4.82;;
22160;SDS011;49035;48.812;11.762;2023-06-10T12:34:31;4.20;;;3.90;;
22160;SDS011;49035;48.812;11.762;2023-06-10T12:37:02;4.53;;;4.13;;
22160;SDS011;49035;48.812;11.762;2023-06-10T12:39:29;4.45;;;4.05;;
22160;SDS011;49035;48.812;11.762;2023-06-10T12:41:58;5.35;;;3.35;;
22160;SDS011;49035;48.812;11.762;2023-06-10T12:44:28;6.50;;;3.78;;
22160;SDS011;49035;48.812;11.762;2023-06-10T12:46:55;3.80;;;3.50;;
22160;SDS011;49035;48.812;11.762;2023-06-10T12:49:20;8.82;;;3.95;;
22160;SDS011;49035;48.812;11.762;2023-06-10T12:51:46;7.22;;;3.83;;
22160;SDS011;49035;48.812;11.762;2023-06-10T12:54:12;4.00;;;3.70;;
22160;SDS011;49035;48.812;11.762;2023-06-10T12:56:38;4.68;;;4.28;;
22160;SDS011;49035;48.812;11.762;2023-06-10T12:59:04;4.50;;;4.10;;
22160;SDS011;49035;48.812;11.762;2023-06-10T13:01:29;4.43;;;4.03;;
22160;SDS011;49035;48.812;11.762;2023-06-10T13:03:56;5.70;;;4.80;;
22160;SDS011;49035;48.812;11.762;2023-06-10T13:06:22;4.40;;;4.00;;
22160;SDS011;49035;48.812;11.762;2023-06-10T13:08:48;3.97;;;3.60;;
22160;SDS011;49035;48.812;11.762;2023-06-10T13:11:14;4.53;;;3.97;;
22160;SDS011;49035;48.812;11.762;2023-06-10T13:13:39;4.07;;;3.60;;
22160;SDS011;49035;48.812;11.762;2023-06-10T13:16:05;4.00;;;3.70;;
22160;SDS011;49035;48.812;11.762;2023-06-10T13:18:32;4.47;;;4.07;;
22160;SDS011;49035;48.812;11.762;2023-06-10T13:21:02;4.50;;;4.10;;
22160;SDS011;49035;48.812;11.762;2023-06-10T13:23:28;4.35;;;3.95;;
22160;SDS011;49035;48.812;11.762;2023-06-10T13:25:54;4.22;;;3.83;;
22160;SDS011;49035;48.812;11.762;2023-06-10T13:28:20;5.28;;;4.78;;
22160;SDS011;49035;48.812;11.762;2023-06-10T13:30:46;5.63;;;5.10;;
22160;SDS011;49035;48.812;11.762;2023-06-10T13:33:12;5.93;;;4.80;;
22160;SDS011;49035;48.812;11.762;2023-06-10T13:35:37;6.47;;;5.55;;
22160;SDS011;49035;48.812;11.762;2023-06-10T13:38:03;6.10;;;5.18;;
22160;SDS011;49035;48.812;11.762;2023-06-10T13:40:28;7.75;;;5.40;;
22160;SDS011;49035;48.812;11.762;2023-06-10T13:42:54;6.10;;;5.45;;
22160;SDS011;49035;48.812;11.762;2023-06-10T13:45:20;5.47;;;4.97;;
22160;SDS011;49035;48.812;11.762;2023-06-10T13:47:46;5.93;;;4.70;;
22160;SDS011;49035;48.812;11.762;2023-06-10T13:50:12;7.97;;;4.75;;
22160;SDS011;49035;48.812;11.762;2023-06-10T13:52:38;6.78;;;4.25;;
22160;SDS011;49035;48.812;11.762;2023-06-10T13:55:04;5.00;;;4.38;;
22160;SDS011;49035;48.812;11.762;2023-06-10T13:57:30;3.97;;;3.63;;
22160;SDS011;49035;48.812;11.762;2023-06-10T13:59:55;4.28;;;3.88;;
22160;SDS011;49035;48.812;11.762;2023-06-10T14:02:21;4.13;;;3.75;;
22160;SDS011;49035;48.812;11.762;2023-06-10T14:04:47;3.70;;;3.30;;
22160;SDS011;49035;48.812;11.762;2023-06-10T14:07:12;3.10;;;2.80;;
22160;SDS011;49035;48.812;11.762;2023-06-10T14:09:38;3.67;;;3.38;;
22160;SDS011;49035;48.812;11.762;2023-06-10T14:12:04;3.85;;;2.92;;
22160;SDS011;49035;48.812;11.762;2023-06-10T14:14:30;3.45;;;3.15;;
22160;SDS011;49035;48.812;11.762;2023-06-10T14:16:58;3.10;;;2.80;;
22160;SDS011;49035;48.812;11.762;2023-06-10T14:19:24;3.17;;;2.88;;
22160;SDS011;49035;48.812;11.762;2023-06-10T14:21:49;3.72;;;2.38;;
22160;SDS011;49035;48.812;11.762;2023-06-10T14:24:15;3.33;;;3.03;;
22160;SDS011;49035;48.812;11.762;2023-06-10T14:26:41;3.20;;;2.65;;
22160;SDS011;49035;48.812;11.762;2023-06-10T14:29:06;3.22;;;2.92;;
22160;SDS011;49035;48.812;11.762;2023-06-10T14:31:33;4.57;;;2.90;;
22160;SDS011;49035;48.812;11.762;2023-06-10T14:33:59;3.47;;;3.17;;
22160;SDS011;49035;48.812;11.762;2023-06-10T14:36:24;3.55;;;3.13;;
22160;SDS011;49035;48.812;11.762;2023-06-10T14:38:50;3.67;;;3.35;;
22160;SDS011;49035;48.812;11.762;2023-06-10T14:41:16;3.53;;;3.22;;
22160;SDS011;49035;48.812;11.762;2023-06-10T14:43:42;4.78;;;3.03;;
22160;SDS011;49035;48.812;11.762;2023-06-10T14:46:07;6.55;;;3.90;;
22160;SDS011;49035;48.812;11.762;2023-06-10T14:48:33;9.13;;;3.85;;
22160;SDS011;49035;48.812;11.762;2023-06-10T14:50:59;7.22;;;4.10;;
22160;SDS011;49035;48.812;11.762;2023-06-10T14:53:24;4.47;;;4.00;;
22160;SDS011;49035;48.812;11.762;2023-06-10T14:55:50;7.65;;;4.70;;
22160;SDS011;49035;48.812;11.762;2023-06-10T14:58:15;7.90;;;4.63;;
22160;SDS011;49035;48.812;11.762;2023-06-10T15:00:41;5.72;;;4.07;;
22160;SDS011;49035;48.812;11.762;2023-06-10T15:03:07;5.85;;;4.63;;
22160;SDS011;49035;48.812;11.762;2023-06-10T15:05:32;5.18;;;4.68;;
22160;SDS011;49035;48.812;11.762;2023-06-10T15:07:59;8.93;;;7.88;;